sensor_id;sensor_type;location;lat;lon;timestamp;temperature;humidity
29003;DHT22;16102;57.138;-2.118;2023-02-10T00:01:24;6.70;1.00
29003;DHT22;16102;57.138;-2.118;2023-02-10T00:03:52;6.70;1.00
29003;DHT22;16102;57.138;-2.118;2023-02-10T00:06:20;6.70;1.00
29003;DHT22;16102;57.138;-2.118;2023-02-10T00:08:50;6.70;1.00
29003;DHT22;16102;57.138;-2.118;2023-02-10T00:11:18;6.70;1.00
29003;DHT22;16102;57.138;-2.118;2023-02-10T00:13:45;6.70;1.00
29003;DHT22;16102;57.138;-2.118;2023-02-10T00:16:14;6.70;1.00
29003;DHT22;16102;57.138;-2.118;2023-02-10T00:18:42;6.70;1.00
29003;DHT22;16102;57.138;-2.118;2023-02-10T00:21:14;6.70;1.00
29003;DHT22;16102;57.138;-2.118;2023-02-10T00:23:43;6.60;1.00
29003;DHT22;16102;57.138;-2.118;2023-02-10T00:26:12;6.70;1.00
29003;DHT22;16102;57.138;-2.118;2023-02-10T00:28:40;6.60;1.00
29003;DHT22;16102;57.138;-2.118;2023-02-10T00:31:09;6.60;1.00
29003;DHT22;16102;57.138;-2.118;2023-02-10T00:33:36;6.60;1.00
29003;DHT22;16102;57.138;-2.118;2023-02-10T00:36:05;6.60;1.00
29003;DHT22;16102;57.138;-2.118;2023-02-10T00:38:32;6.60;1.00
29003;DHT22;16102;57.138;-2.118;2023-02-10T00:41:10;6.60;1.00
29003;DHT22;16102;57.138;-2.118;2023-02-10T00:43:38;6.60;1.00
29003;DHT22;16102;57.138;-2.118;2023-02-10T00:46:10;6.70;1.00
29003;DHT22;16102;57.138;-2.118;2023-02-10T00:48:37;6.70;1.00
29003;DHT22;16102;57.138;-2.118;2023-02-10T00:51:05;6.60;1.00
29003;DHT22;16102;57.138;-2.118;2023-02-10T00:53:33;6.60;1.00
29003;DHT22;16102;57.138;-2.118;2023-02-10T00:56:01;6.60;1.00
29003;DHT22;16102;57.138;-2.118;2023-02-10T00:58:28;6.60;1.00
29003;DHT22;16102;57.138;-2.118;2023-02-10T01:00:55;6.60;1.00
29003;DHT22;16102;57.138;-2.118;2023-02-10T01:03:23;6.60;1.00
29003;DHT22;16102;57.138;-2.118;2023-02-10T01:05:50;6.60;1.00
29003;DHT22;16102;57.138;-2.118;2023-02-10T01:08:17;6.60;1.00
29003;DHT22;16102;57.138;-2.118;2023-02-10T01:10:45;6.60;1.00
29003;DHT22;16102;57.138;-2.118;2023-02-10T01:13:13;6.60;1.00
29003;DHT22;16102;57.138;-2.118;2023-02-10T01:15:45;6.70;1.00
29003;DHT22;16102;57.138;-2.118;2023-02-10T01:18:13;6.60;1.00
29003;DHT22;16102;57.138;-2.118;2023-02-10T01:20:41;6.70;1.00
29003;DHT22;16102;57.138;-2.118;2023-02-10T01:23:09;6.70;1.00
29003;DHT22;16102;57.138;-2.118;2023-02-10T01:25:36;6.80;1.00
29003;DHT22;16102;57.138;-2.118;2023-02-10T01:28:04;6.80;1.00
29003;DHT22;16102;57.138;-2.118;2023-02-10T01:30:31;6.80;1.00
29003;DHT22;16102;57.138;-2.118;2023-02-10T01:32:58;6.80;1.00
29003;DHT22;16102;57.138;-2.118;2023-02-10T01:35:26;6.80;1.00
29003;DHT22;16102;57.138;-2.118;2023-02-10T01:37:54;6.80;1.00
29003;DHT22;16102;57.138;-2.118;2023-02-10T01:40:23;6.80;1.00
29003;DHT22;16102;57.138;-2.118;2023-02-10T01:42:51;6.90;1.00
29003;DHT22;16102;57.138;-2.118;2023-02-10T01:47:52;7.00;1.00
29003;DHT22;16102;57.138;-2.118;2023-02-10T01:50:26;7.00;1.00
29003;DHT22;16102;57.138;-2.118;2023-02-10T01:52:55;7.00;1.00
29003;DHT22;16102;57.138;-2.118;2023-02-10T01:55:25;7.00;1.00
29003;DHT22;16102;57.138;-2.118;2023-02-10T01:57:55;7.00;1.00
29003;DHT22;16102;57.138;-2.118;2023-02-10T02:00:24;7.00;1.00
29003;DHT22;16102;57.138;-2.118;2023-02-10T02:02:51;7.00;1.00
29003;DHT22;16102;57.138;-2.118;2023-02-10T02:05:30;7.00;1.00
29003;DHT22;16102;57.138;-2.118;2023-02-10T02:08:13;6.90;1.00
29003;DHT22;16102;57.138;-2.118;2023-02-10T02:23:09;6.90;1.00
29003;DHT22;16102;57.138;-2.118;2023-02-10T02:28:48;6.70;1.00
29003;DHT22;16102;57.138;-2.118;2023-02-10T02:31:43;6.60;1.00
29003;DHT22;16102;57.138;-2.118;2023-02-10T02:34:25;6.50;1.00
29003;DHT22;16102;57.138;-2.118;2023-02-10T02:37:01;6.40;1.00
29003;DHT22;16102;57.138;-2.118;2023-02-10T02:39:29;6.30;1.00
29003;DHT22;16102;57.138;-2.118;2023-02-10T02:42:32;6.30;1.00
29003;DHT22;16102;57.138;-2.118;2023-02-10T02:45:02;6.20;1.00
29003;DHT22;16102;57.138;-2.118;2023-02-10T02:53:04;6.10;1.00
29003;DHT22;16102;57.138;-2.118;2023-02-10T02:58:47;6.10;1.00
29003;DHT22;16102;57.138;-2.118;2023-02-10T03:01:29;6.10;1.00
29003;DHT22;16102;57.138;-2.118;2023-02-10T03:03:58;6.10;1.00
29003;DHT22;16102;57.138;-2.118;2023-02-10T03:06:25;6.00;1.00
29003;DHT22;16102;57.138;-2.118;2023-02-10T03:08:52;6.00;1.00
29003;DHT22;16102;57.138;-2.118;2023-02-10T03:11:20;6.00;1.00
29003;DHT22;16102;57.138;-2.118;2023-02-10T03:13:47;6.00;1.00
29003;DHT22;16102;57.138;-2.118;2023-02-10T03:16:14;6.00;1.00
29003;DHT22;16102;57.138;-2.118;2023-02-10T03:18:41;6.00;1.00
29003;DHT22;16102;57.138;-2.118;2023-02-10T03:21:08;6.00;1.00
29003;DHT22;16102;57.138;-2.118;2023-02-10T03:23:35;6.00;16.90
29003;DHT22;16102;57.138;-2.118;2023-02-10T03:26:02;6.10;15.30
29003;DHT22;16102;57.138;-2.118;2023-02-10T03:28:29;6.10;22.80
29003;DHT22;16102;57.138;-2.118;2023-02-10T03:30:56;6.10;28.60
29003;DHT22;16102;57.138;-2.118;2023-02-10T03:33:23;6.10;33.60
29003;DHT22;16102;57.138;-2.118;2023-02-10T03:35:51;6.10;43.30
29003;DHT22;16102;57.138;-2.118;2023-02-10T03:38:20;6.10;49.10
29003;DHT22;16102;57.138;-2.118;2023-02-10T03:40:51;6.10;61.80
29003;DHT22;16102;57.138;-2.118;2023-02-10T03:43:19;6.10;56.10
29003;DHT22;16102;57.138;-2.118;2023-02-10T03:45:46;6.10;56.70
29003;DHT22;16102;57.138;-2.118;2023-02-10T03:48:14;6.20;56.60
29003;DHT22;16102;57.138;-2.118;2023-02-10T03:50:42;6.20;50.20
29003;DHT22;16102;57.138;-2.118;2023-02-10T03:53:09;6.20;28.00
29003;DHT22;16102;57.138;-2.118;2023-02-10T03:55:36;6.20;11.30
29003;DHT22;16102;57.138;-2.118;2023-02-10T03:58:03;6.30;1.00
29003;DHT22;16102;57.138;-2.118;2023-02-10T04:00:30;6.40;1.00
29003;DHT22;16102;57.138;-2.118;2023-02-10T04:02:58;6.40;1.00
29003;DHT22;16102;57.138;-2.118;2023-02-10T04:05:25;6.50;1.00
29003;DHT22;16102;57.138;-2.118;2023-02-10T04:07:52;6.60;1.00
29003;DHT22;16102;57.138;-2.118;2023-02-10T04:10:19;6.70;1.00
29003;DHT22;16102;57.138;-2.118;2023-02-10T04:12:48;6.80;1.00
29003;DHT22;16102;57.138;-2.118;2023-02-10T04:15:15;6.90;1.00
29003;DHT22;16102;57.138;-2.118;2023-02-10T04:17:42;7.00;1.00
29003;DHT22;16102;57.138;-2.118;2023-02-10T04:20:11;7.00;1.00
29003;DHT22;16102;57.138;-2.118;2023-02-10T04:22:38;6.90;1.00
29003;DHT22;16102;57.138;-2.118;2023-02-10T04:25:05;7.00;1.00
29003;DHT22;16102;57.138;-2.118;2023-02-10T04:27:32;7.00;1.00
29003;DHT22;16102;57.138;-2.118;2023-02-10T04:30:00;7.00;1.00
29003;DHT22;16102;57.138;-2.118;2023-02-10T04:32:27;7.00;1.00
29003;DHT22;16102;57.138;-2.118;2023-02-10T04:34:54;7.00;1.00
29003;DHT22;16102;57.138;-2.118;2023-02-10T04:37:22;7.00;1.00
29003;DHT22;16102;57.138;-2.118;2023-02-10T04:39:49;7.00;1.00
29003;DHT22;16102;57.138;-2.118;2023-02-10T04:42:16;7.00;1.00
29003;DHT22;16102;57.138;-2.118;2023-02-10T04:44:43;7.00;1.00
29003;DHT22;16102;57.138;-2.118;2023-02-10T04:47:09;7.00;1.00
29003;DHT22;16102;57.138;-2.118;2023-02-10T04:49:36;7.00;1.00
29003;DHT22;16102;57.138;-2.118;2023-02-10T04:52:03;6.90;1.00
29003;DHT22;16102;57.138;-2.118;2023-02-10T04:54:31;7.00;1.00
29003;DHT22;16102;57.138;-2.118;2023-02-10T04:56:57;7.00;1.00
29003;DHT22;16102;57.138;-2.118;2023-02-10T04:59:24;7.00;1.00
29003;DHT22;16102;57.138;-2.118;2023-02-10T05:01:51;7.00;1.00
29003;DHT22;16102;57.138;-2.118;2023-02-10T05:04:18;7.00;1.00
29003;DHT22;16102;57.138;-2.118;2023-02-10T05:06:46;7.00;1.00
29003;DHT22;16102;57.138;-2.118;2023-02-10T05:09:13;7.00;1.00
29003;DHT22;16102;57.138;-2.118;2023-02-10T05:11:40;7.00;1.00
29003;DHT22;16102;57.138;-2.118;2023-02-10T05:14:08;7.00;1.00
29003;DHT22;16102;57.138;-2.118;2023-02-10T05:16:35;6.90;1.00
29003;DHT22;16102;57.138;-2.118;2023-02-10T05:19:03;6.90;1.00
29003;DHT22;16102;57.138;-2.118;2023-02-10T05:21:30;6.90;1.00
29003;DHT22;16102;57.138;-2.118;2023-02-10T05:23:58;6.80;1.00
29003;DHT22;16102;57.138;-2.118;2023-02-10T05:26:25;6.80;1.00
29003;DHT22;16102;57.138;-2.118;2023-02-10T05:28:52;6.80;1.00
29003;DHT22;16102;57.138;-2.118;2023-02-10T05:31:19;6.70;1.00
29003;DHT22;16102;57.138;-2.118;2023-02-10T05:33:46;6.70;1.00
29003;DHT22;16102;57.138;-2.118;2023-02-10T05:36:14;6.60;1.00
29003;DHT22;16102;57.138;-2.118;2023-02-10T05:38:41;6.60;1.00
29003;DHT22;16102;57.138;-2.118;2023-02-10T05:41:28;6.60;1.00
29003;DHT22;16102;57.138;-2.118;2023-02-10T05:43:55;6.60;1.00
29003;DHT22;16102;57.138;-2.118;2023-02-10T05:46:22;6.50;1.00
29003;DHT22;16102;57.138;-2.118;2023-02-10T05:48:49;6.50;1.00
29003;DHT22;16102;57.138;-2.118;2023-02-10T05:51:15;6.50;1.00
29003;DHT22;16102;57.138;-2.118;2023-02-10T05:53:42;6.50;1.00
29003;DHT22;16102;57.138;-2.118;2023-02-10T05:56:09;6.50;1.00
29003;DHT22;16102;57.138;-2.118;2023-02-10T05:58:36;6.40;1.00
29003;DHT22;16102;57.138;-2.118;2023-02-10T06:01:08;6.40;1.00
29003;DHT22;16102;57.138;-2.118;2023-02-10T06:03:35;6.40;1.00
29003;DHT22;16102;57.138;-2.118;2023-02-10T06:06:02;6.40;1.00
29003;DHT22;16102;57.138;-2.118;2023-02-10T06:08:29;6.40;1.00
29003;DHT22;16102;57.138;-2.118;2023-02-10T06:10:56;6.40;1.00
29003;DHT22;16102;57.138;-2.118;2023-02-10T06:13:23;6.30;1.00
29003;DHT22;16102;57.138;-2.118;2023-02-10T06:15:50;6.30;1.00
29003;DHT22;16102;57.138;-2.118;2023-02-10T06:18:17;6.30;1.00
29003;DHT22;16102;57.138;-2.118;2023-02-10T06:20:47;6.30;1.00
29003;DHT22;16102;57.138;-2.118;2023-02-10T06:23:14;6.30;1.00
29003;DHT22;16102;57.138;-2.118;2023-02-10T06:25:41;6.20;1.00
29003;DHT22;16102;57.138;-2.118;2023-02-10T06:28:08;6.20;1.00
29003;DHT22;16102;57.138;-2.118;2023-02-10T06:30:35;6.20;1.00
29003;DHT22;16102;57.138;-2.118;2023-02-10T06:33:03;6.20;1.00
29003;DHT22;16102;57.138;-2.118;2023-02-10T06:35:30;6.10;1.00
29003;DHT22;16102;57.138;-2.118;2023-02-10T06:37:57;6.10;1.00
29003;DHT22;16102;57.138;-2.118;2023-02-10T06:40:24;6.10;1.00
29003;DHT22;16102;57.138;-2.118;2023-02-10T06:42:51;6.10;1.00
29003;DHT22;16102;57.138;-2.118;2023-02-10T06:45:18;6.10;1.00
29003;DHT22;16102;57.138;-2.118;2023-02-10T06:47:45;6.10;1.00
29003;DHT22;16102;57.138;-2.118;2023-02-10T06:50:12;6.10;1.00
29003;DHT22;16102;57.138;-2.118;2023-02-10T06:52:40;6.00;1.00
29003;DHT22;16102;57.138;-2.118;2023-02-10T06:55:07;6.00;1.00
29003;DHT22;16102;57.138;-2.118;2023-02-10T06:57:35;6.00;1.00
29003;DHT22;16102;57.138;-2.118;2023-02-10T07:00:10;6.00;1.00
29003;DHT22;16102;57.138;-2.118;2023-02-10T07:02:38;6.00;1.00
29003;DHT22;16102;57.138;-2.118;2023-02-10T07:05:06;6.00;1.00
29003;DHT22;16102;57.138;-2.118;2023-02-10T07:07:42;6.00;1.00
29003;DHT22;16102;57.138;-2.118;2023-02-10T07:10:09;6.00;1.00
29003;DHT22;16102;57.138;-2.118;2023-02-10T07:12:37;6.00;1.00
29003;DHT22;16102;57.138;-2.118;2023-02-10T07:15:05;6.00;1.00
29003;DHT22;16102;57.138;-2.118;2023-02-10T07:17:32;6.00;1.00
29003;DHT22;16102;57.138;-2.118;2023-02-10T07:19:59;6.00;1.00
29003;DHT22;16102;57.138;-2.118;2023-02-10T07:22:27;6.00;1.00
29003;DHT22;16102;57.138;-2.118;2023-02-10T07:24:53;6.00;1.00
29003;DHT22;16102;57.138;-2.118;2023-02-10T07:27:21;6.10;1.00
29003;DHT22;16102;57.138;-2.118;2023-02-10T07:29:48;6.10;1.00
29003;DHT22;16102;57.138;-2.118;2023-02-10T07:32:15;6.10;1.00
29003;DHT22;16102;57.138;-2.118;2023-02-10T07:34:42;6.10;1.00
29003;DHT22;16102;57.138;-2.118;2023-02-10T07:37:10;6.10;1.00
29003;DHT22;16102;57.138;-2.118;2023-02-10T07:39:37;6.10;1.00
29003;DHT22;16102;57.138;-2.118;2023-02-10T07:42:04;6.10;1.00
29003;DHT22;16102;57.138;-2.118;2023-02-10T07:44:31;6.20;1.00
29003;DHT22;16102;57.138;-2.118;2023-02-10T07:46:59;6.20;1.00
29003;DHT22;16102;57.138;-2.118;2023-02-10T07:49:26;6.20;1.00
29003;DHT22;16102;57.138;-2.118;2023-02-10T07:51:56;6.20;1.00
29003;DHT22;16102;57.138;-2.118;2023-02-10T07:54:23;6.20;1.00
29003;DHT22;16102;57.138;-2.118;2023-02-10T07:56:50;6.20;1.00
29003;DHT22;16102;57.138;-2.118;2023-02-10T07:59:17;6.20;1.00
29003;DHT22;16102;57.138;-2.118;2023-02-10T08:01:45;6.20;1.00
29003;DHT22;16102;57.138;-2.118;2023-02-10T08:04:12;6.30;1.00
29003;DHT22;16102;57.138;-2.118;2023-02-10T08:06:40;6.30;1.00
29003;DHT22;16102;57.138;-2.118;2023-02-10T08:09:07;6.20;1.00
29003;DHT22;16102;57.138;-2.118;2023-02-10T08:11:34;6.20;1.00
29003;DHT22;16102;57.138;-2.118;2023-02-10T08:14:02;6.30;1.00
29003;DHT22;16102;57.138;-2.118;2023-02-10T08:16:29;6.30;1.00
29003;DHT22;16102;57.138;-2.118;2023-02-10T08:18:56;6.30;1.00
29003;DHT22;16102;57.138;-2.118;2023-02-10T08:21:25;6.20;1.00
29003;DHT22;16102;57.138;-2.118;2023-02-10T08:23:53;6.20;1.00
29003;DHT22;16102;57.138;-2.118;2023-02-10T08:26:21;6.30;1.00
29003;DHT22;16102;57.138;-2.118;2023-02-10T08:28:49;6.20;1.00
29003;DHT22;16102;57.138;-2.118;2023-02-10T08:31:20;6.20;3.50
29003;DHT22;16102;57.138;-2.118;2023-02-10T08:33:47;6.20;11.50
29003;DHT22;16102;57.138;-2.118;2023-02-10T08:36:17;6.20;18.60
29003;DHT22;16102;57.138;-2.118;2023-02-10T08:38:48;6.20;30.00
29003;DHT22;16102;57.138;-2.118;2023-02-10T08:41:19;6.20;41.00
29003;DHT22;16102;57.138;-2.118;2023-02-10T08:43:49;6.20;50.80
29003;DHT22;16102;57.138;-2.118;2023-02-10T08:46:16;6.20;61.90
29003;DHT22;16102;57.138;-2.118;2023-02-10T08:48:43;6.20;70.90
29003;DHT22;16102;57.138;-2.118;2023-02-10T08:51:12;6.30;71.50
29003;DHT22;16102;57.138;-2.118;2023-02-10T08:53:39;6.30;81.10
29003;DHT22;16102;57.138;-2.118;2023-02-10T08:56:10;6.30;90.90
29003;DHT22;16102;57.138;-2.118;2023-02-10T08:58:38;6.30;93.30
29003;DHT22;16102;57.138;-2.118;2023-02-10T09:01:09;6.30;94.60
29003;DHT22;16102;57.138;-2.118;2023-02-10T09:03:38;6.30;97.70
29003;DHT22;16102;57.138;-2.118;2023-02-10T09:06:05;6.40;99.90
29003;DHT22;16102;57.138;-2.118;2023-02-10T09:08:32;6.40;99.90
29003;DHT22;16102;57.138;-2.118;2023-02-10T09:10:59;6.40;99.90
29003;DHT22;16102;57.138;-2.118;2023-02-10T09:13:26;6.40;99.90
29003;DHT22;16102;57.138;-2.118;2023-02-10T09:15:53;6.40;99.90
29003;DHT22;16102;57.138;-2.118;2023-02-10T09:18:20;6.50;99.90
29003;DHT22;16102;57.138;-2.118;2023-02-10T09:20:47;6.50;99.90
29003;DHT22;16102;57.138;-2.118;2023-02-10T09:23:14;6.50;99.90
29003;DHT22;16102;57.138;-2.118;2023-02-10T09:25:41;6.50;99.90
29003;DHT22;16102;57.138;-2.118;2023-02-10T09:28:08;6.50;99.90
29003;DHT22;16102;57.138;-2.118;2023-02-10T09:30:35;6.50;99.90
29003;DHT22;16102;57.138;-2.118;2023-02-10T09:33:02;6.50;99.90
29003;DHT22;16102;57.138;-2.118;2023-02-10T09:35:29;6.60;99.90
29003;DHT22;16102;57.138;-2.118;2023-02-10T09:37:57;6.60;99.90
29003;DHT22;16102;57.138;-2.118;2023-02-10T09:40:28;6.60;99.90
29003;DHT22;16102;57.138;-2.118;2023-02-10T09:46:16;6.60;99.90
29003;DHT22;16102;57.138;-2.118;2023-02-10T09:54:55;6.70;99.90
29003;DHT22;16102;57.138;-2.118;2023-02-10T09:57:43;6.70;99.90
29003;DHT22;16102;57.138;-2.118;2023-02-10T10:00:27;6.70;99.90
29003;DHT22;16102;57.138;-2.118;2023-02-10T10:02:56;6.80;99.90
29003;DHT22;16102;57.138;-2.118;2023-02-10T10:08:30;6.90;99.90
29003;DHT22;16102;57.138;-2.118;2023-02-10T10:11:04;7.00;99.90
29003;DHT22;16102;57.138;-2.118;2023-02-10T10:13:33;7.10;99.90
29003;DHT22;16102;57.138;-2.118;2023-02-10T10:29:52;7.40;99.90
29003;DHT22;16102;57.138;-2.118;2023-02-10T10:32:46;7.50;99.90
29003;DHT22;16102;57.138;-2.118;2023-02-10T10:35:30;7.60;97.20
29003;DHT22;16102;57.138;-2.118;2023-02-10T10:37:59;7.60;96.20
29003;DHT22;16102;57.138;-2.118;2023-02-10T10:40:29;7.60;99.90
29003;DHT22;16102;57.138;-2.118;2023-02-10T10:42:59;7.60;99.90
29003;DHT22;16102;57.138;-2.118;2023-02-10T10:45:31;7.70;99.90
29003;DHT22;16102;57.138;-2.118;2023-02-10T10:48:18;7.70;98.80
29003;DHT22;16102;57.138;-2.118;2023-02-10T10:50:52;7.80;99.90
29003;DHT22;16102;57.138;-2.118;2023-02-10T10:53:40;7.90;71.00
29003;DHT22;16102;57.138;-2.118;2023-02-10T11:02:19;8.20;29.80
29003;DHT22;16102;57.138;-2.118;2023-02-10T11:05:05;8.20;23.00
29003;DHT22;16102;57.138;-2.118;2023-02-10T11:07:36;8.20;26.30
29003;DHT22;16102;57.138;-2.118;2023-02-10T11:10:05;8.20;27.70
29003;DHT22;16102;57.138;-2.118;2023-02-10T11:12:34;8.10;39.30
29003;DHT22;16102;57.138;-2.118;2023-02-10T11:15:27;8.20;51.20
29003;DHT22;16102;57.138;-2.118;2023-02-10T11:18:04;8.30;34.40
29003;DHT22;16102;57.138;-2.118;2023-02-10T11:20:34;8.30;28.70
29003;DHT22;16102;57.138;-2.118;2023-02-10T11:23:13;8.40;25.20
29003;DHT22;16102;57.138;-2.118;2023-02-10T11:25:41;8.40;21.70
29003;DHT22;16102;57.138;-2.118;2023-02-10T11:28:19;8.50;17.80
29003;DHT22;16102;57.138;-2.118;2023-02-10T11:30:52;8.50;25.70
29003;DHT22;16102;57.138;-2.118;2023-02-10T11:33:24;8.60;10.90
29003;DHT22;16102;57.138;-2.118;2023-02-10T11:35:58;8.60;6.60
29003;DHT22;16102;57.138;-2.118;2023-02-10T11:38:26;8.60;3.10
29003;DHT22;16102;57.138;-2.118;2023-02-10T11:41:02;8.70;3.00
29003;DHT22;16102;57.138;-2.118;2023-02-10T11:43:37;8.70;1.00
29003;DHT22;16102;57.138;-2.118;2023-02-10T11:46:07;8.80;1.00
29003;DHT22;16102;57.138;-2.118;2023-02-10T11:48:36;8.80;1.00
29003;DHT22;16102;57.138;-2.118;2023-02-10T11:51:15;8.90;1.00
29003;DHT22;16102;57.138;-2.118;2023-02-10T11:53:45;9.00;1.00
29003;DHT22;16102;57.138;-2.118;2023-02-10T11:56:40;9.00;1.00
29003;DHT22;16102;57.138;-2.118;2023-02-10T12:10:54;9.40;1.00
29003;DHT22;16102;57.138;-2.118;2023-02-10T12:13:59;9.40;1.00
29003;DHT22;16102;57.138;-2.118;2023-02-10T12:21:38;9.80;1.00
29003;DHT22;16102;57.138;-2.118;2023-02-10T12:24:16;10.80;1.00
29003;DHT22;16102;57.138;-2.118;2023-02-10T12:32:29;11.30;1.00
29003;DHT22;16102;57.138;-2.118;2023-02-10T12:35:27;10.80;1.00
29003;DHT22;16102;57.138;-2.118;2023-02-10T12:41:07;10.50;1.00
29003;DHT22;16102;57.138;-2.118;2023-02-10T12:46:29;10.40;1.00
29003;DHT22;16102;57.138;-2.118;2023-02-10T12:52:14;10.30;1.00
29003;DHT22;16102;57.138;-2.118;2023-02-10T12:57:44;10.20;1.00
29003;DHT22;16102;57.138;-2.118;2023-02-10T13:00:30;10.20;1.00
29003;DHT22;16102;57.138;-2.118;2023-02-10T13:03:19;10.20;1.00
29003;DHT22;16102;57.138;-2.118;2023-02-10T13:06:51;10.40;1.00
29003;DHT22;16102;57.138;-2.118;2023-02-10T13:12:12;11.80;1.00
29003;DHT22;16102;57.138;-2.118;2023-02-10T13:14:41;12.20;1.00
29003;DHT22;16102;57.138;-2.118;2023-02-10T13:17:09;12.20;1.00
29003;DHT22;16102;57.138;-2.118;2023-02-10T13:22:47;12.40;1.00
29003;DHT22;16102;57.138;-2.118;2023-02-10T13:28:35;13.10;1.00
29003;DHT22;16102;57.138;-2.118;2023-02-10T13:34:30;13.40;1.00
29003;DHT22;16102;57.138;-2.118;2023-02-10T13:39:51;13.60;1.00
29003;DHT22;16102;57.138;-2.118;2023-02-10T13:42:28;13.50;1.00
29003;DHT22;16102;57.138;-2.118;2023-02-10T13:44:59;13.70;1.00
29003;DHT22;16102;57.138;-2.118;2023-02-10T13:47:33;14.00;1.00
29003;DHT22;16102;57.138;-2.118;2023-02-10T14:00:22;13.30;1.00
29003;DHT22;16102;57.138;-2.118;2023-02-10T14:05:37;13.50;1.00
29003;DHT22;16102;57.138;-2.118;2023-02-10T14:08:15;13.40;1.00
29003;DHT22;16102;57.138;-2.118;2023-02-10T14:14:24;13.30;1.00
29003;DHT22;16102;57.138;-2.118;2023-02-10T14:17:17;13.30;1.00
29003;DHT22;16102;57.138;-2.118;2023-02-10T14:19:51;13.30;1.00
29003;DHT22;16102;57.138;-2.118;2023-02-10T14:24:51;13.30;1.00
29003;DHT22;16102;57.138;-2.118;2023-02-10T14:27:23;13.30;1.00
29003;DHT22;16102;57.138;-2.118;2023-02-10T14:29:59;13.30;1.00
29003;DHT22;16102;57.138;-2.118;2023-02-10T14:32:30;13.20;1.00
29003;DHT22;16102;57.138;-2.118;2023-02-10T14:35:03;13.30;1.00
29003;DHT22;16102;57.138;-2.118;2023-02-10T14:37:55;13.20;1.00
29003;DHT22;16102;57.138;-2.118;2023-02-10T14:40:24;13.30;1.00
29003;DHT22;16102;57.138;-2.118;2023-02-10T14:42:52;13.30;1.00
29003;DHT22;16102;57.138;-2.118;2023-02-10T14:45:24;13.30;1.00
29003;DHT22;16102;57.138;-2.118;2023-02-10T14:47:54;13.40;1.00
29003;DHT22;16102;57.138;-2.118;2023-02-10T14:50:36;13.40;1.00
29003;DHT22;16102;57.138;-2.118;2023-02-10T14:53:05;13.40;1.00
29003;DHT22;16102;57.138;-2.118;2023-02-10T14:55:38;13.40;1.00
29003;DHT22;16102;57.138;-2.118;2023-02-10T14:58:12;13.30;1.00
29003;DHT22;16102;57.138;-2.118;2023-02-10T15:00:40;13.20;1.00
29003;DHT22;16102;57.138;-2.118;2023-02-10T15:03:11;13.20;1.00
29003;DHT22;16102;57.138;-2.118;2023-02-10T15:05:45;13.20;1.00
29003;DHT22;16102;57.138;-2.118;2023-02-10T15:08:24;13.10;1.00
29003;DHT22;16102;57.138;-2.118;2023-02-10T15:10:53;13.10;1.00
29003;DHT22;16102;57.138;-2.118;2023-02-10T15:13:25;13.10;1.00
29003;DHT22;16102;57.138;-2.118;2023-02-10T15:15:56;13.00;1.00
29003;DHT22;16102;57.138;-2.118;2023-02-10T15:18:30;13.00;1.00
29003;DHT22;16102;57.138;-2.118;2023-02-10T15:21:00;13.00;1.00
29003;DHT22;16102;57.138;-2.118;2023-02-10T15:23:28;13.00;1.00
29003;DHT22;16102;57.138;-2.118;2023-02-10T15:26:17;13.00;1.00
29003;DHT22;16102;57.138;-2.118;2023-02-10T15:28:45;12.90;1.00
29003;DHT22;16102;57.138;-2.118;2023-02-10T15:31:24;13.00;1.00
29003;DHT22;16102;57.138;-2.118;2023-02-10T15:33:55;13.00;1.00
29003;DHT22;16102;57.138;-2.118;2023-02-10T15:36:33;13.00;1.00
29003;DHT22;16102;57.138;-2.118;2023-02-10T15:39:02;13.00;1.00
29003;DHT22;16102;57.138;-2.118;2023-02-10T15:49:35;13.00;1.00
29003;DHT22;16102;57.138;-2.118;2023-02-10T15:52:02;13.00;1.00
29003;DHT22;16102;57.138;-2.118;2023-02-10T15:54:30;12.90;1.00
29003;DHT22;16102;57.138;-2.118;2023-02-10T15:57:00;12.90;1.00
29003;DHT22;16102;57.138;-2.118;2023-02-10T15:59:28;12.90;1.00
29003;DHT22;16102;57.138;-2.118;2023-02-10T16:01:56;12.90;1.00
29003;DHT22;16102;57.138;-2.118;2023-02-10T16:04:24;12.90;1.00
29003;DHT22;16102;57.138;-2.118;2023-02-10T16:06:51;12.90;1.00
29003;DHT22;16102;57.138;-2.118;2023-02-10T16:09:18;12.90;1.00
29003;DHT22;16102;57.138;-2.118;2023-02-10T16:11:45;12.90;1.00
29003;DHT22;16102;57.138;-2.118;2023-02-10T16:14:13;12.80;1.00
29003;DHT22;16102;57.138;-2.118;2023-02-10T16:16:45;12.80;1.00
29003;DHT22;16102;57.138;-2.118;2023-02-10T16:19:15;12.80;1.00
29003;DHT22;16102;57.138;-2.118;2023-02-10T16:21:42;12.80;1.00
29003;DHT22;16102;57.138;-2.118;2023-02-10T16:24:19;12.80;1.00
29003;DHT22;16102;57.138;-2.118;2023-02-10T16:26:47;12.80;1.00
29003;DHT22;16102;57.138;-2.118;2023-02-10T16:29:19;12.80;1.00
29003;DHT22;16102;57.138;-2.118;2023-02-10T16:31:46;12.70;1.00
29003;DHT22;16102;57.138;-2.118;2023-02-10T16:34:14;12.70;1.00
29003;DHT22;16102;57.138;-2.118;2023-02-10T16:36:41;12.70;1.00
29003;DHT22;16102;57.138;-2.118;2023-02-10T16:39:16;12.70;1.00
29003;DHT22;16102;57.138;-2.118;2023-02-10T16:41:47;12.60;1.00
29003;DHT22;16102;57.138;-2.118;2023-02-10T16:44:15;12.60;1.00
29003;DHT22;16102;57.138;-2.118;2023-02-10T16:46:43;12.50;1.00
29003;DHT22;16102;57.138;-2.118;2023-02-10T16:49:12;12.60;1.00
29003;DHT22;16102;57.138;-2.118;2023-02-10T16:51:39;12.50;1.00
29003;DHT22;16102;57.138;-2.118;2023-02-10T16:54:07;12.50;1.00
29003;DHT22;16102;57.138;-2.118;2023-02-10T16:56:37;12.50;1.00
29003;DHT22;16102;57.138;-2.118;2023-02-10T16:59:05;12.40;1.00
29003;DHT22;16102;57.138;-2.118;2023-02-10T17:01:32;12.40;1.00
29003;DHT22;16102;57.138;-2.118;2023-02-10T17:03:59;12.50;1.00
29003;DHT22;16102;57.138;-2.118;2023-02-10T17:06:28;12.50;1.00
29003;DHT22;16102;57.138;-2.118;2023-02-10T17:08:57;12.50;1.00
29003;DHT22;16102;57.138;-2.118;2023-02-10T17:11:24;12.40;1.00
29003;DHT22;16102;57.138;-2.118;2023-02-10T17:13:51;12.40;1.00
29003;DHT22;16102;57.138;-2.118;2023-02-10T17:16:29;12.50;1.00
29003;DHT22;16102;57.138;-2.118;2023-02-10T17:18:57;12.50;1.00
29003;DHT22;16102;57.138;-2.118;2023-02-10T17:21:24;12.40;1.00
29003;DHT22;16102;57.138;-2.118;2023-02-10T17:23:51;12.50;1.00
29003;DHT22;16102;57.138;-2.118;2023-02-10T17:26:18;12.40;1.00
29003;DHT22;16102;57.138;-2.118;2023-02-10T17:28:45;12.40;1.00
29003;DHT22;16102;57.138;-2.118;2023-02-10T17:31:16;12.40;1.00
29003;DHT22;16102;57.138;-2.118;2023-02-10T17:33:45;12.40;1.00
29003;DHT22;16102;57.138;-2.118;2023-02-10T17:36:21;12.40;1.00
29003;DHT22;16102;57.138;-2.118;2023-02-10T17:38:49;12.30;1.00
29003;DHT22;16102;57.138;-2.118;2023-02-10T17:41:21;12.30;1.00
29003;DHT22;16102;57.138;-2.118;2023-02-10T17:43:49;12.20;1.00
29003;DHT22;16102;57.138;-2.118;2023-02-10T17:46:17;12.20;1.00
29003;DHT22;16102;57.138;-2.118;2023-02-10T17:48:45;12.20;1.00
29003;DHT22;16102;57.138;-2.118;2023-02-10T17:51:21;12.10;1.00
29003;DHT22;16102;57.138;-2.118;2023-02-10T17:53:50;12.10;1.00
29003;DHT22;16102;57.138;-2.118;2023-02-10T17:56:18;12.00;1.00
29003;DHT22;16102;57.138;-2.118;2023-02-10T17:58:46;12.10;1.00
29003;DHT22;16102;57.138;-2.118;2023-02-10T18:01:25;12.00;1.00
29003;DHT22;16102;57.138;-2.118;2023-02-10T18:03:53;12.00;1.00
29003;DHT22;16102;57.138;-2.118;2023-02-10T18:06:21;12.00;1.00
29003;DHT22;16102;57.138;-2.118;2023-02-10T18:08:48;11.90;1.00
29003;DHT22;16102;57.138;-2.118;2023-02-10T18:11:16;11.90;1.00
29003;DHT22;16102;57.138;-2.118;2023-02-10T18:13:43;11.90;1.00